AirNav   ProFlight Series 2 Aviation Headset
 
 555 users online  

CT92 Bemer Heliport
Portland, Connecticut, USA

GOING TO PORTLAND?


FAA INFORMATION EFFECTIVE 18 JUNE 2020

Location

FAA Identifier: CT92
Lat/Long: 41-37-22.3570N 072-36-02.3270W
41-37.372617N 072-36.038783W
41.6228769,-72.6006464
(estimated)
Elevation: 160 ft. / 49 m (estimated)
Variation: 14W (1980)
Time zone: UTC -4 (UTC -5 during Standard Time)
Zip code: 06480

Heliport Operations

Heliport use: Private use, PERSONAL USE.
Activation date: 11/1986
Control tower: no
ARTCC: BOSTON CENTER
FSS: BRIDGEPORT FLIGHT SERVICE STATION
Attendance: UNATNDD
Segmented circle: no

Heliport Communications

WX ASOS at HFD (7 nm N): PHONE 860-527-5837
WX AWOS-AV at CT71 (10 nm NW): 129.825
WX ASOS at MMK (12 nm SW): 134.925 (203-639-9405)
WX AWOS-3 at SNC (15 nm S): 118.325 (860-526-1551)
WX ASOS at BDL (19 nm N): PHONE 860-386-3480

Nearby radio navigation aids

VOR radial/distance  VOR name  Freq  Var
HFDr258/2.6HARTFORD VOR/DME114.9013W
MADr026/19.0MADISON VOR/DME110.4013W
ORWr292/27.3NORWICH VOR/DME110.0014W
GONr319/30.3GROTON VOR/DME110.8514W
BAFr185/32.8BARNES VORTAC113.0014W
BDRr052/36.4BRIDGEPORT VOR/DME108.8012W
PUTr253/39.3PUTNAM VOR/DME117.4014W

Heliport Services

Runway Information

Helipad H1

Dimensions: 18 x 18 ft. / 5 x 5 m
Surface: asphalt
Traffic pattern: leftleft

Heliport Ownership and Management from official FAA records

Ownership: Privately-owned
Owner: BEMER AVIATION, INC.
210 COMMERCE STREET
GLASTONBURY, CT 06033
Phone 860-659-3515
Manager: BRUCE J BEMER
215 SHERWOOD DR
GLASTONBURY, CT 06033

Additional Remarks

FOR CD CTC YANKEE APCH AT 860-386-3597

Instrument Procedures

There are no published instrument procedures at CT92.

Some nearby airports with instrument procedures:

KHFD - Hartford-Brainard Airport (7 nm N)
KMMK - Meriden Markham Municipal Airport (12 nm SW)
4B8 - Robertson Field Airport (12 nm W)
KSNC - Chester Airport (15 nm S)
KBDL - Bradley International Airport (19 nm N)
 
Loc | Ops | Rwys | IFR | FBO | Links
Com | Nav | Svcs | Stats | Notes

Silver City Flying Club
 
Area around CT92 (Bemer Heliport)
 
Road maps at: MapQuest Bing Google
 
Aerial photo
No photo
 
Sectional chart

 
Airport distance calculator
Flying to Bemer Heliport? Find the distance to fly.

From to CT92

Sunrise and sunset
Times for 11-Jul-2020
 Local
(UTC-4)
 Zulu
(UTC)
Morning civil twilight04:5508:55
Sunrise05:2809:28
Sunset20:2400:24
Evening civil twilight20:5700:57

Current date and time
Zulu (UTC)  11-Jul-2020 11:51:58
Local (UTC-4)  11-Jul-2020 07:51:58
 
METAR
KHFD 
7nm N 
111053Z 19009G16KT 10SM CLR 24/21 A2970 RMK AO2 SLP056 T02440211
KMMK 
12nm SW 
111053Z AUTO 17007KT 10SM CLR 24/21 A2971 RMK AO2 SLP060 T02390206
KSNC 
15nm S 
111035Z AUTO 19010G18KT 5SM BR OVC004 22/22 A2974 RMK AO2
KBDL 
19nm N 
111100Z 18012G22KT 10SM FEW019 SCT024 BKN032 23/21 A2968 RMK AO2 T02330211 $
TAF
KBDL 
19nm N 
110819Z 1108/1212 16013G20KT P6SM BKN015 FM111200 18014KT P6SM BKN025 FM111400 19011G22KT P6SM BKN050 FM111900 18012G25KT P6SM VCSH BKN050
NOTAMs
Click for the latest NOTAMs
NOTAMs are issued by the DoD/FAA and will open in a separate window not controlled by AirNav.

 

 
 

Would you like to see your business listed on this page?

 If your business provides an interesting product or service to pilots, flight crews, aircraft, or users of the Bemer Heliport, you should consider listing it here.  To start the listing process, click on the button below
 
Add a business
 

Other Pages about Bemer Heliport

Update a link
 
Copyright © AirNav, LLC. All rights reserved. Privacy Policy  Contact